Observation data for Plains on 06/21/2019      Previous  Date  Next       Current Mesonet Observations  Soil Data  Daily Summary Page  Observations in Plain Language
KPPS 210500Z 21008KT 23/M01 A2983 RMK A01 T02331011  RH  020%=      5-min Rain = 0
KPPS 210505Z 21009KT 23/M01 A2983 RMK A01 T02321013  RH  020%=      5-min Rain = 0
KPPS 210510Z 21009KT 23/M02 A2983 RMK A01 T02321015  RH  019%=      5-min Rain = 0
KPPS 210515Z 21009KT 23/M02 A2983 RMK A01 T02321016  RH  019%=      5-min Rain = 0
KPPS 210520Z 21009KT 23/M02 A2983 RMK A01 T02311017  RH  019%=      5-min Rain = 0
KPPS 210525Z 21009KT 23/M02 A2983 RMK A01 T02301018  RH  019%=      5-min Rain = 0
KPPS 210530Z 21009KT 23/M02 A2983 RMK A01 T02301019  RH  019%=      5-min Rain = 0
KPPS 210535Z 21008KT 23/M02 A2983 RMK A01 T02281019  RH  019%=      5-min Rain = 0
KPPS 210540Z 21009KT 23/M02 A2982 RMK A01 T02291021  RH  019%=      5-min Rain = 0
KPPS 210545Z 21009KT 23/M02 A2982 RMK A01 T02311023  RH  018%=      5-min Rain = 0
KPPS 210550Z 21008KT 23/M02 A2982 RMK A01 T02301022  RH  019%=      5-min Rain = 0
KPPS 210555Z 21009KT 23/M02 A2982 RMK A01 T02281022  RH  019%=      5-min Rain = 0
KPPS 210600Z 21010KT 23/M02 A2982 RMK A01 T02301023  RH  019%=      5-min Rain = 0
KPPS 210605Z 21010KT 23/M02 A2982 RMK A01 T02311024  RH  018%=      5-min Rain = 0
KPPS 210610Z 21009KT 23/M02 A2982 RMK A01 T02301023  RH  018%=      5-min Rain = 0
KPPS 210615Z 21009KT 23/M02 A2982 RMK A01 T02281024  RH  019%=      5-min Rain = 0
KPPS 210620Z 21008KT 23/M02 A2982 RMK A01 T02261023  RH  019%=      5-min Rain = 0
KPPS 210625Z 21008KT 22/M02 A2982 RMK A01 T02231022  RH  019%=      5-min Rain = 0
KPPS 210630Z 22008KT 22/M02 A2982 RMK A01 T02221022  RH  020%=      5-min Rain = 0
KPPS 210635Z 22008KT 22/M02 A2982 RMK A01 T02211022  RH  020%=      5-min Rain = 0
KPPS 210640Z 21007KT 22/M02 A2982 RMK A01 T02181021  RH  020%=      5-min Rain = 0
KPPS 210645Z 21007KT 22/M02 A2982 RMK A01 T02151021  RH  021%=      5-min Rain = 0
KPPS 210650Z 19008KT 21/M02 A2982 RMK A01 T02111019  RH  021%=      5-min Rain = 0
KPPS 210655Z 20009KT 21/M02 A2982 RMK A01 T02121019  RH  021%=      5-min Rain = 0
KPPS 210700Z 21007KT 21/M02 A2982 RMK A01 T02111018  RH  021%=      5-min Rain = 0
KPPS 210705Z 22007KT 21/M02 A2981 RMK A01 T02091018  RH  022%=      5-min Rain = 0
KPPS 210710Z 21008KT 21/M02 A2981 RMK A01 T02071018  RH  022%=      5-min Rain = 0
KPPS 210715Z 21008KT 20/M02 A2982 RMK A01 T02041018  RH  022%=      5-min Rain = 0
KPPS 210720Z 20008KT 20/M02 A2982 RMK A01 T02021016  RH  023%=      5-min Rain = 0
KPPS 210725Z 21007KT 20/M02 A2981 RMK A01 T02011016  RH  023%=      5-min Rain = 0
KPPS 210730Z 22006KT 20/M02 A2981 RMK A01 T01991016  RH  024%=      5-min Rain = 0
KPPS 210735Z 21007KT 20/M02 A2981 RMK A01 T01971016  RH  024%=      5-min Rain = 0
KPPS 210740Z 22008KT 20/M02 A2981 RMK A01 T01981018  RH  023%=      5-min Rain = 0
KPPS 210745Z 21007KT 20/M02 A2981 RMK A01 T02001018  RH  023%=      5-min Rain = 0
KPPS 210750Z 21008KT 20/M02 A2981 RMK A01 T02001018  RH  023%=      5-min Rain = 0
KPPS 210755Z 21008KT 20/M02 A2981 RMK A01 T02031020  RH  022%=      5-min Rain = 0
KPPS 210800Z 21008KT 20/M02 A2981 RMK A01 T02031021  RH  022%=      5-min Rain = 0
KPPS 210805Z 21008KT 20/M02 A2981 RMK A01 T02001020  RH  023%=      5-min Rain = 0
KPPS 210810Z 21007KT 20/M02 A2981 RMK A01 T01991020  RH  023%=      5-min Rain = 0
KPPS 210815Z 22007KT 20/M02 A2981 RMK A01 T01981020  RH  023%=      5-min Rain = 0
KPPS 210820Z 22009KT 20/M02 A2981 RMK A01 T02001022  RH  022%=      5-min Rain = 0
KPPS 210825Z 22008KT 20/M02 A2981 RMK A01 T02031023  RH  022%=      5-min Rain = 0
KPPS 210830Z 22008KT 20/M02 A2981 RMK A01 T02031024  RH  022%=      5-min Rain = 0
KPPS 210835Z 22008KT 20/M02 A2981 RMK A01 T02021023  RH  022%=      5-min Rain = 0
KPPS 210840Z 22008KT 20/M02 A2981 RMK A01 T02001022  RH  022%=      5-min Rain = 0
KPPS 210845Z 23007KT 20/M02 A2981 RMK A01 T01951019  RH  024%=      5-min Rain = 0
KPPS 210850Z 22007KT 19/M02 A2981 RMK A01 T01931018  RH  024%=      5-min Rain = 0
KPPS 210855Z 23007KT 19/M02 A2981 RMK A01 T01941019  RH  024%=      5-min Rain = 0
KPPS 210900Z 22006KT 19/M02 A2981 RMK A01 T01931020  RH  024%=      5-min Rain = 0
KPPS 210905Z 20007KT 20/M02 A2982 RMK A01 T01951020  RH  023%=      5-min Rain = 0
KPPS 210910Z 17009G14KT 19/M01 A2982 RMK A01 T01901014  RH  025%=      5-min Rain = 0
KPPS 210915Z 18010G15KT 19/M02 A2982 RMK A01 T01931015  RH  025%=      5-min Rain = 0
KPPS 210920Z 18010KT 20/M02 A2982 RMK A01 T02011017  RH  023%=      5-min Rain = 0
KPPS 210925Z 18010KT 20/M02 A2983 RMK A01 T01991017  RH  023%=      5-min Rain = 0
KPPS 210930Z 19012KT 20/M02 A2983 RMK A01 T02031022  RH  022%=      5-min Rain = 0
KPPS 210935Z 19011KT 21/M03 A2983 RMK A01 T02051026  RH  021%=      5-min Rain = 0
KPPS 210940Z 19010KT 21/M03 A2983 RMK A01 T02071027  RH  021%=      5-min Rain = 0
KPPS 210945Z 19011KT 21/M02 A2983 RMK A01 T02071020  RH  022%=      5-min Rain = 0
KPPS 210950Z 19011KT 20/M01 A2983 RMK A01 T02021009  RH  024%=      5-min Rain = 0
KPPS 210955Z 19010KT 20/M00 A2983 RMK A01 T01961001  RH  027%=      5-min Rain = 0
KPPS 211000Z 19010KT 19/01 A2983 RMK A01 T01920009  RH  030%=      5-min Rain = 0
KPPS 211005Z 19010KT 19/02 A2984 RMK A01 T01900018  RH  032%=      5-min Rain = 0
KPPS 211010Z 19009KT 19/03 A2984 RMK A01 T01880028  RH  035%=      5-min Rain = 0
KPPS 211015Z 19008KT 19/04 A2984 RMK A01 T01870039  RH  038%=      5-min Rain = 0
KPPS 211020Z 20008KT 19/05 A2984 RMK A01 T01860046  RH  041%=      5-min Rain = 0
KPPS 211025Z 19009KT 18/05 A2984 RMK A01 T01840052  RH  043%=      5-min Rain = 0
KPPS 211030Z 20009KT 19/06 A2984 RMK A01 T01850062  RH  046%=      5-min Rain = 0
KPPS 211035Z 19012KT 19/07 A2984 RMK A01 T01870070  RH  048%=      5-min Rain = 0
KPPS 211040Z 19010KT 19/08 A2984 RMK A01 T01860078  RH  051%=      5-min Rain = 0
KPPS 211045Z 19009KT 19/08 A2985 RMK A01 T01870084  RH  053%=      5-min Rain = 0
KPPS 211050Z 19011KT 19/09 A2985 RMK A01 T01870094  RH  056%=      5-min Rain = 0
KPPS 211055Z 20010KT 19/10 A2985 RMK A01 T01910100  RH  057%=      5-min Rain = 0
KPPS 211100Z 20011KT 19/10 A2985 RMK A01 T01920102  RH  058%=      5-min Rain = 0
KPPS 211105Z 19010KT 19/10 A2985 RMK A01 T01900104  RH  060%=      5-min Rain = 0
KPPS 211110Z 20008KT 19/11 A2986 RMK A01 T01900107  RH  061%=      5-min Rain = 0
KPPS 211115Z 19008KT 19/11 A2986 RMK A01 T01890108  RH  062%=      5-min Rain = 0
KPPS 211120Z 20009KT 19/11 A2986 RMK A01 T01890110  RH  062%=      5-min Rain = 0
KPPS 211125Z 20009KT 19/11 A2986 RMK A01 T01880111  RH  063%=      5-min Rain = 0
KPPS 211130Z 20009KT 19/11 A2987 RMK A01 T01860111  RH  064%=      5-min Rain = 0
KPPS 211135Z 20007KT 19/11 A2987 RMK A01 T01860110  RH  064%=      5-min Rain = 0
KPPS 211140Z 21008KT 18/11 A2987 RMK A01 T01830110  RH  065%=      5-min Rain = 0
KPPS 211145Z 20009KT 18/11 A2987 RMK A01 T01840110  RH  065%=      5-min Rain = 0
KPPS 211150Z 20007KT 18/11 A2987 RMK A01 T01840110  RH  064%=      5-min Rain = 0
KPPS 211155Z 22005KT 18/11 A2987 RMK A01 T01820109  RH  064%=      5-min Rain = 0
KPPS 211200Z 21005KT 18/11 A2987 RMK A01 T01780107  RH  066%=      5-min Rain = 0
KPPS 211205Z 21006KT 18/11 A2988 RMK A01 T01800109  RH  065%=      5-min Rain = 0
KPPS 211210Z 20007KT 18/11 A2988 RMK A01 T01800109  RH  065%=      5-min Rain = 0
KPPS 211215Z 20007KT 18/11 A2988 RMK A01 T01820110  RH  065%=      5-min Rain = 0
KPPS 211220Z 20007KT 18/11 A2988 RMK A01 T01840110  RH  064%=      5-min Rain = 0
KPPS 211225Z 21007KT 19/11 A2988 RMK A01 T01850110  RH  064%=      5-min Rain = 0
KPPS 211230Z 21005KT 19/11 A2988 RMK A01 T01860111  RH  064%=      5-min Rain = 0
KPPS 211235Z 23004KT 19/11 A2989 RMK A01 T01860111  RH  064%=      5-min Rain = 0
KPPS 211240Z 24006KT 19/11 A2989 RMK A01 T01860111  RH  064%=      5-min Rain = 0
KPPS 211245Z 24006KT 19/11 A2989 RMK A01 T01890111  RH  063%=      5-min Rain = 0
KPPS 211250Z 23006KT 19/11 A2989 RMK A01 T01930110  RH  061%=      5-min Rain = 0
KPPS 211255Z 22006KT 20/11 A2989 RMK A01 T01970109  RH  059%=      5-min Rain = 0
KPPS 211300Z 22005KT 20/11 A2989 RMK A01 T02010109  RH  057%=      5-min Rain = 0
KPPS 211305Z 22006KT 21/11 A2989 RMK A01 T02050108  RH  055%=      5-min Rain = 0
KPPS 211310Z 22006KT 21/11 A2989 RMK A01 T02100107  RH  054%=      5-min Rain = 0
KPPS 211315Z 21007KT 22/10 A299 RMK A01 T02150104  RH  051%=      5-min Rain = 0
KPPS 211320Z 22006KT 22/10 A299 RMK A01 T02220099  RH  047%=      5-min Rain = 0
KPPS 211325Z 22005KT 23/10 A299 RMK A01 T02280097  RH  045%=      5-min Rain = 0
KPPS 211330Z 22006KT 23/09 A299 RMK A01 T02340092  RH  042%=      5-min Rain = 0
KPPS 211335Z 23006KT 24/09 A299 RMK A01 T02380087  RH  039%=      5-min Rain = 0
KPPS 211340Z 23006KT 24/08 A299 RMK A01 T02440083  RH  037%=      5-min Rain = 0
KPPS 211345Z 23008KT 25/08 A299 RMK A01 T02490075  RH  034%=      5-min Rain = 0
KPPS 211350Z 23009KT 25/07 A299 RMK A01 T02520069  RH  032%=      5-min Rain = 0
KPPS 211355Z 23009KT 26/06 A2991 RMK A01 T02570056  RH  028%=      5-min Rain = 0
KPPS 211400Z 23008KT 26/05 A2991 RMK A01 T02620054  RH  027%=      5-min Rain = 0
KPPS 211405Z 22008KT 27/05 A2991 RMK A01 T02670047  RH  025%=      5-min Rain = 0
KPPS 211410Z 23010KT 27/03 A2991 RMK A01 T02690034  RH  022%=      5-min Rain = 0
KPPS 211415Z 23010G15KT 27/02 A2991 RMK A01 T02710023  RH  020%=      5-min Rain = 0
KPPS 211420Z 23011KT 27/02 A2991 RMK A01 T02740024  RH  020%=      5-min Rain = 0
KPPS 211425Z 22009G14KT 28/02 A2991 RMK A01 T02780024  RH  020%=      5-min Rain = 0
KPPS 211430Z 22011KT 28/02 A2991 RMK A01 T02810017  RH  018%=      5-min Rain = 0
KPPS 211435Z 22010KT 28/02 A2991 RMK A01 T02830018  RH  018%=      5-min Rain = 0
KPPS 211440Z 23010KT 29/02 A2991 RMK A01 T02870017  RH  018%=      5-min Rain = 0
KPPS 211445Z 24009KT 29/02 A2991 RMK A01 T02890019  RH  018%=      5-min Rain = 0
KPPS 211450Z 24007KT 29/03 A2991 RMK A01 T02940026  RH  018%=      5-min Rain = 0
KPPS 211455Z 24009KT 30/02 A2991 RMK A01 T02970016  RH  017%=      5-min Rain = 0
KPPS 211500Z 24009KT 30/01 A2991 RMK A01 T02980010  RH  016%=      5-min Rain = 0
KPPS 211505Z 24008KT 30/01 A2991 RMK A01 T02990010  RH  016%=      5-min Rain = 0
KPPS 211510Z 23008KT 30/01 A2991 RMK A01 T02990007  RH  015%=      5-min Rain = 0
KPPS 211515Z 25008KT 30/01 A2991 RMK A01 T03040010  RH  015%=      5-min Rain = 0
KPPS 211520Z 24008KT 31/01 A2991 RMK A01 T03080005  RH  015%=      5-min Rain = 0
KPPS 211525Z 24008KT 31/M01 A2991 RMK A01 T03101006  RH  013%=      5-min Rain = 0
KPPS 211530Z 25008KT 31/M01 A2991 RMK A01 T03111009  RH  013%=      5-min Rain = 0
KPPS 211535Z 25009KT 31/M01 A2991 RMK A01 T03141010  RH  012%=      5-min Rain = 0
KPPS 211540Z 25007G12KT 31/M01 A2991 RMK A01 T03141014  RH  012%=      5-min Rain = 0
KPPS 211545Z 24006KT 32/M01 A2991 RMK A01 T03181008  RH  012%=      5-min Rain = 0
KPPS 211550Z 23007KT 32/M01 A2991 RMK A01 T03201010  RH  012%=      5-min Rain = 0
KPPS 211555Z 22007KT 32/M01 A2991 RMK A01 T03221014  RH  012%=      5-min Rain = 0
KPPS 211600Z 24007KT 32/M01 A2991 RMK A01 T03241011  RH  012%=      5-min Rain = 0
KPPS 211605Z 24007KT 33/M02 A2991 RMK A01 T03261022  RH  011%=      5-min Rain = 0
KPPS 211610Z 24007KT 33/M02 A2991 RMK A01 T03301022  RH  010%=      5-min Rain = 0
KPPS 211615Z 22006G11KT 33/M03 A2991 RMK A01 T03291026  RH  010%=      5-min Rain = 0
KPPS 211620Z 25006KT 33/M03 A2991 RMK A01 T03331031  RH  010%=      5-min Rain = 0
KPPS 211625Z 22006KT 33/M03 A2991 RMK A01 T03321032  RH  010%=      5-min Rain = 0
KPPS 211630Z 25005KT 33/M03 A2991 RMK A01 T03331029  RH  010%=      5-min Rain = 0
KPPS 211635Z 25005G10KT 34/M04 A2991 RMK A01 T03351036  RH  009%=      5-min Rain = 0
KPPS 211640Z 23008KT 34/M04 A2991 RMK A01 T03371038  RH  009%=      5-min Rain = 0
KPPS 211645Z 24008KT 34/M04 A299 RMK A01 T03381035  RH  009%=      5-min Rain = 0
KPPS 211650Z 26006G11KT 34/M04 A299 RMK A01 T03411035  RH  009%=      5-min Rain = 0
KPPS 211655Z 25004G11KT 34/M03 A299 RMK A01 T03421031  RH  009%=      5-min Rain = 0
KPPS 211700Z 25009G14KT 34/M03 A299 RMK A01 T03441034  RH  009%=      5-min Rain = 0
KPPS 211705Z 20006KT 34/M03 A299 RMK A01 T03421031  RH  009%=      5-min Rain = 0
KPPS 211710Z 24008G14KT 34/M03 A299 RMK A01 T03431030  RH  009%=      5-min Rain = 0
KPPS 211715Z 23010KT 35/M02 A299 RMK A01 T03501024  RH  009%=      5-min Rain = 0
KPPS 211720Z 22008KT 35/M03 A299 RMK A01 T03471027  RH  009%=      5-min Rain = 0
KPPS 211725Z 24006G13KT 35/M03 A299 RMK A01 T03471028  RH  009%=      5-min Rain = 0
KPPS 211730Z 23012KT 35/M03 A299 RMK A01 T03481026  RH  009%=      5-min Rain = 0
KPPS 211735Z 22010KT 35/M03 A299 RMK A01 T03481029  RH  009%=      5-min Rain = 0
KPPS 211740Z 19006G11KT 35/M03 A299 RMK A01 T03471033  RH  009%=      5-min Rain = 0
KPPS 211745Z 24009G17KT 35/M03 A2989 RMK A01 T03501027  RH  009%=      5-min Rain = 0
KPPS 211750Z 24012KT 35/M03 A2989 RMK A01 T03521027  RH  009%=      5-min Rain = 0
KPPS 211755Z 24005G12KT 35/M03 A2989 RMK A01 T03491034  RH  009%=      5-min Rain = 0
KPPS 211800Z 23008G13KT 35/M02 A2989 RMK A01 T03521023  RH  009%=      5-min Rain = 0
KPPS 211805Z 26007KT 36/M02 A2989 RMK A01 T03571021  RH  009%=      5-min Rain = 0
KPPS 211810Z 22010G16KT 36/M03 A2989 RMK A01 T03561027  RH  009%=      5-min Rain = 0
KPPS 211815Z 25008G13KT 35/M03 A2989 RMK A01 T03521030  RH  009%=      5-min Rain = 0
KPPS 211820Z 24007G14KT 36/M03 A2988 RMK A01 T03561026  RH  009%=      5-min Rain = 0
KPPS 211825Z 21013G18KT 36/M03 A2988 RMK A01 T03571025  RH  009%=      5-min Rain = 0
KPPS 211830Z 25008G15KT 36/M02 A2988 RMK A01 T03571024  RH  009%=      5-min Rain = 0
KPPS 211835Z 24007G16KT 36/M02 A2988 RMK A01 T03561024  RH  009%=      5-min Rain = 0
KPPS 211840Z 24015G20KT 36/M02 A2988 RMK A01 T03621016  RH  009%=      5-min Rain = 0
KPPS 211845Z 24011G18KT 36/M02 A2988 RMK A01 T03611017  RH  009%=      5-min Rain = 0
KPPS 211850Z 22011G17KT 36/M02 A2988 RMK A01 T03571021  RH  009%=      5-min Rain = 0
KPPS 211855Z 25008KT 36/M02 A2988 RMK A01 T03591018  RH  009%=      5-min Rain = 0
KPPS 211900Z 21010KT 36/M02 A2988 RMK A01 T03601015  RH  009%=      5-min Rain = 0
KPPS 211905Z 22012G19KT 36/M01 A2987 RMK A01 T03621013  RH  009%=      5-min Rain = 0
KPPS 211910Z 24011KT 36/M01 A2987 RMK A01 T03611013  RH  009%=      5-min Rain = 0
KPPS 211915Z 23012G20KT 36/M01 A2987 RMK A01 T03601014  RH  009%=      5-min Rain = 0
KPPS 211920Z 22009G14KT 36/M01 A2987 RMK A01 T03611012  RH  009%=      5-min Rain = 0
KPPS 211925Z 22015G22KT 36/M01 A2987 RMK A01 T03641007  RH  010%=      5-min Rain = 0
KPPS 211930Z 22015G23KT 37/M01 A2987 RMK A01 T03651009  RH  009%=      5-min Rain = 0
KPPS 211935Z 24015G23KT 36/M01 A2986 RMK A01 T03641009  RH  010%=      5-min Rain = 0
KPPS 211940Z 25011G18KT 37/M01 A2986 RMK A01 T03651010  RH  009%=      5-min Rain = 0
KPPS 211945Z 20012G17KT 36/M01 A2986 RMK A01 T03631008  RH  010%=      5-min Rain = 0
KPPS 211950Z 20014G22KT 36/M01 A2986 RMK A01 T03641009  RH  010%=      5-min Rain = 0
KPPS 211955Z 24014G22KT 37/M00 A2986 RMK A01 T03651003  RH  010%=      5-min Rain = 0
KPPS 212000Z 22013G20KT 37/M01 A2986 RMK A01 T03671005  RH  010%=      5-min Rain = 0
KPPS 212005Z 20012G24KT 36/M01 A2986 RMK A01 T03631006  RH  010%=      5-min Rain = 0
KPPS 212010Z 20015G22KT 37/M00 A2985 RMK A01 T03651003  RH  010%=      5-min Rain = 0
KPPS 212015Z 20015G23KT 37/M00 A2986 RMK A01 T03661003  RH  010%=      5-min Rain = 0
KPPS 212020Z 20011G17KT 37/00 A2985 RMK A01 T036600-0  RH  010%=      5-min Rain = 0
KPPS 212025Z 22011G17KT 37/00 A2985 RMK A01 T03690002  RH  010%=      5-min Rain = 0
KPPS 212030Z 21014G24KT 37/M00 A2985 RMK A01 T03691002  RH  010%=      5-min Rain = 0
KPPS 212035Z 22012G18KT 37/M00 A2985 RMK A01 T03661001  RH  010%=      5-min Rain = 0
KPPS 212040Z 23010G16KT 37/M00 A2985 RMK A01 T03651002  RH  010%=      5-min Rain = 0
KPPS 212045Z 22011G18KT 37/00 A2985 RMK A01 T036700-0  RH  010%=      5-min Rain = 0
KPPS 212050Z 19014G22KT 37/00 A2984 RMK A01 T03700000  RH  010%=      5-min Rain = 0
KPPS 212055Z 20015G23KT 37/00 A2984 RMK A01 T03710004  RH  010%=      5-min Rain = 0
KPPS 212100Z 19018G23KT 37/00 A2984 RMK A01 T03740001  RH  010%=      5-min Rain = 0
KPPS 212105Z 23015G20KT 37/00 A2984 RMK A01 T03710001  RH  010%=      5-min Rain = 0
KPPS 212110Z 22013G21KT 37/M00 A2984 RMK A01 T03681001  RH  010%=      5-min Rain = 0
KPPS 212115Z 21014G25KT 37/00 A2984 RMK A01 T03700002  RH  010%=      5-min Rain = 0
KPPS 212120Z 21013G19KT 37/00 A2984 RMK A01 T03700003  RH  010%=      5-min Rain = 0
KPPS 212125Z 20012G18KT 37/00 A2983 RMK A01 T03710002  RH  010%=      5-min Rain = 0
KPPS 212130Z 22013G20KT 37/00 A2983 RMK A01 T03720004  RH  010%=      5-min Rain = 0
KPPS 212135Z 23014G20KT 37/00 A2983 RMK A01 T03720004  RH  010%=      5-min Rain = 0
KPPS 212140Z 21010G17KT 37/00 A2983 RMK A01 T03740003  RH  010%=      5-min Rain = 0
KPPS 212145Z 20012G17KT 37/M00 A2982 RMK A01 T03701001  RH  010%=      5-min Rain = 0
KPPS 212150Z 19014G27KT 37/01 A2982 RMK A01 T03740007  RH  010%=      5-min Rain = 0
KPPS 212155Z 18015G22KT 38/01 A2982 RMK A01 T03780006  RH  010%=      5-min Rain = 0
KPPS 212200Z 20013G18KT 38/01 A2982 RMK A01 T03770006  RH  010%=      5-min Rain = 0
KPPS 212205Z 22016G26KT 38/00 A2982 RMK A01 T03750004  RH  010%=      5-min Rain = 0
KPPS 212210Z 21014G21KT 37/00 A2982 RMK A01 T03730003  RH  010%=      5-min Rain = 0
KPPS 212215Z 21013G19KT 37/00 A2981 RMK A01 T03720002  RH  010%=      5-min Rain = 0
KPPS 212220Z 21015G20KT 38/01 A2981 RMK A01 T03750005  RH  010%=      5-min Rain = 0
KPPS 212225Z 19014KT 37/01 A2981 RMK A01 T03740005  RH  010%=      5-min Rain = 0
KPPS 212230Z 20012G17KT 38/01 A2981 RMK A01 T03760008  RH  010%=      5-min Rain = 0
KPPS 212235Z 21017G25KT 38/00 A2981 RMK A01 T03750004  RH  010%=      5-min Rain = 0
KPPS 212240Z 19018G24KT 37/01 A2981 RMK A01 T03740006  RH  010%=      5-min Rain = 0
KPPS 212245Z 19016G21KT 37/01 A2981 RMK A01 T03740007  RH  010%=      5-min Rain = 0
KPPS 212250Z 21016G23KT 37/00 A2981 RMK A01 T03730003  RH  010%=      5-min Rain = 0
KPPS 212255Z 21014G22KT 37/00 A2981 RMK A01 T03700001  RH  010%=      5-min Rain = 0
KPPS 212300Z 23011G17KT 37/01 A298 RMK A01 T03720007  RH  010%=      5-min Rain = 0
KPPS 212305Z 20015G24KT 37/01 A298 RMK A01 T03730008  RH  010%=      5-min Rain = 0
KPPS 212310Z 21015G22KT 37/01 A298 RMK A01 T03710005  RH  010%=      5-min Rain = 0
KPPS 212315Z 19015G20KT 37/01 A298 RMK A01 T03720007  RH  010%=      5-min Rain = 0
KPPS 212320Z 19014KT 37/01 A298 RMK A01 T03700006  RH  010%=      5-min Rain = 0
KPPS 212325Z 22009G14KT 37/01 A298 RMK A01 T03680005  RH  010%=      5-min Rain = 0
KPPS 212330Z 22007KT 37/01 A2979 RMK A01 T03690007  RH  010%=      5-min Rain = 0
KPPS 212335Z 22009G15KT 37/01 A2979 RMK A01 T03690009  RH  011%=      5-min Rain = 0
KPPS 212340Z 20012G17KT 37/01 A2979 RMK A01 T03680008  RH  011%=      5-min Rain = 0
KPPS 212345Z 18012KT 37/01 A2979 RMK A01 T03700010  RH  011%=      5-min Rain = 0
KPPS 212350Z 18011KT 37/01 A2979 RMK A01 T03680006  RH  010%=      5-min Rain = 0
KPPS 212355Z 19013G19KT 37/01 A2978 RMK A01 T03670008  RH  011%=      5-min Rain = 0
KPPS 220000Z 19015KT 37/01 A2978 RMK A01 T03670009  RH  011%=      5-min Rain = 0
KPPS 220005Z 21016KT 37/01 A2978 RMK A01 T03660010  RH  011%=      5-min Rain = 0
KPPS 220010Z 21013G18KT 37/01 A2978 RMK A01 T03660013  RH  011%=      5-min Rain = 0
KPPS 220015Z 21013G22KT 37/02 A2978 RMK A01 T03660017  RH  011%=      5-min Rain = 0
KPPS 220020Z 21015G22KT 36/01 A2978 RMK A01 T03640013  RH  011%=      5-min Rain = 0
KPPS 220025Z 21013G20KT 36/02 A2979 RMK A01 T03630015  RH  011%=      5-min Rain = 0
KPPS 220030Z 21013G18KT 36/02 A2979 RMK A01 T03620020  RH  012%=      5-min Rain = 0
KPPS 220035Z 21015KT 36/02 A2979 RMK A01 T03610019  RH  012%=      5-min Rain = 0
KPPS 220040Z 20013G19KT 36/02 A2979 RMK A01 T03600020  RH  012%=      5-min Rain = 0
KPPS 220045Z 21014KT 36/02 A2979 RMK A01 T03590018  RH  012%=      5-min Rain = 0
KPPS 220050Z 21012G17KT 36/02 A2979 RMK A01 T03580023  RH  012%=      5-min Rain = 0
KPPS 220055Z 21010G18KT 36/02 A2979 RMK A01 T03560021  RH  012%=      5-min Rain = 0
KPPS 220100Z 21011KT 36/02 A2979 RMK A01 T03550022  RH  013%=      5-min Rain = 0
KPPS 220105Z 22013G18KT 35/02 A2979 RMK A01 T03530019  RH  012%=      5-min Rain = 0
KPPS 220110Z 22013KT 35/02 A2979 RMK A01 T03520015  RH  012%=      5-min Rain = 0
KPPS 220115Z 22010G17KT 35/02 A2979 RMK A01 T03490020  RH  013%=      5-min Rain = 0
KPPS 220120Z 22011KT 35/02 A2979 RMK A01 T03470019  RH  013%=      5-min Rain = 0
KPPS 220125Z 21010KT 34/02 A2979 RMK A01 T03440020  RH  013%=      5-min Rain = 0
KPPS 220130Z 21011KT 34/02 A2978 RMK A01 T03430017  RH  013%=      5-min Rain = 0
KPPS 220135Z 21011KT 34/02 A2978 RMK A01 T03410016  RH  013%=      5-min Rain = 0
KPPS 220140Z 21011KT 34/02 A2978 RMK A01 T03380017  RH  013%=      5-min Rain = 0
KPPS 220145Z 21010G15KT 33/02 A2978 RMK A01 T03340016  RH  014%=      5-min Rain = 0
KPPS 220150Z 21009KT 33/02 A2979 RMK A01 T03310016  RH  014%=      5-min Rain = 0
KPPS 220155Z 20008KT 33/02 A2979 RMK A01 T03260017  RH  014%=      5-min Rain = 0
KPPS 220200Z 20009KT 32/02 A298 RMK A01 T03220017  RH  015%=      5-min Rain = 0
KPPS 220205Z 20009KT 32/02 A2981 RMK A01 T03200017  RH  015%=      5-min Rain = 0
KPPS 220210Z 19009KT 32/02 A2981 RMK A01 T03150019  RH  015%=      5-min Rain = 0
KPPS 220215Z 19009KT 31/02 A2981 RMK A01 T03100019  RH  016%=      5-min Rain = 0
KPPS 220220Z 19009KT 31/02 A2982 RMK A01 T03060019  RH  016%=      5-min Rain = 0
KPPS 220225Z 19009KT 30/02 A2982 RMK A01 T03030018  RH  016%=      5-min Rain = 0
KPPS 220230Z 20009KT 30/02 A2982 RMK A01 T03020019  RH  017%=      5-min Rain = 0
KPPS 220235Z 19009KT 30/02 A2983 RMK A01 T03000018  RH  017%=      5-min Rain = 0
KPPS 220240Z 19008KT 30/02 A2983 RMK A01 T02970020  RH  017%=      5-min Rain = 0
KPPS 220245Z 19008KT 29/02 A2983 RMK A01 T02930023  RH  018%=      5-min Rain = 0
KPPS 220250Z 19008KT 29/03 A2983 RMK A01 T02900025  RH  019%=      5-min Rain = 0
KPPS 220255Z 20006KT 29/03 A2983 RMK A01 T02880028  RH  019%=      5-min Rain = 0
KPPS 220300Z 20007KT 29/03 A2983 RMK A01 T02880028  RH  019%=      5-min Rain = 0
KPPS 220305Z 22006KT 29/03 A2983 RMK A01 T02870029  RH  019%=      5-min Rain = 0
KPPS 220310Z 25005KT 28/03 A2983 RMK A01 T02800033  RH  021%=      5-min Rain = 0
KPPS 220315Z 25005KT 27/03 A2983 RMK A01 T02720029  RH  021%=      5-min Rain = 0
KPPS 220320Z 24005KT 27/03 A2983 RMK A01 T02700028  RH  021%=      5-min Rain = 0
KPPS 220325Z 20004KT 27/03 A2984 RMK A01 T02710027  RH  021%=      5-min Rain = 0
KPPS 220330Z 14012G21KT 26/04 A2985 RMK A01 T02610040  RH  025%=      5-min Rain = 0
KPPS 220335Z 17018G25KT 28/07 A2985 RMK A01 T02820067  RH  026%=      5-min Rain = 0
KPPS 220340Z 17015G23KT 29/08 A2986 RMK A01 T02880077  RH  027%=      5-min Rain = 0
KPPS 220345Z 16020G32KT 29/09 A2986 RMK A01 T02930093  RH  030%=      5-min Rain = 0
KPPS 220350Z 17015G21KT 29/09 A2986 RMK A01 T02940094  RH  030%=      5-min Rain = 0
KPPS 220355Z 17015G21KT 29/10 A2986 RMK A01 T02900101  RH  032%=      5-min Rain = 0
KPPS 220400Z 16018G23KT 29/11 A2986 RMK A01 T02890106  RH  033%=      5-min Rain = 0
KPPS 220405Z 17015G20KT 29/11 A2986 RMK A01 T02880108  RH  034%=      5-min Rain = 0
KPPS 220410Z 16013KT 28/11 A2987 RMK A01 T02840109  RH  035%=      5-min Rain = 0
KPPS 220415Z 16012KT 28/11 A2987 RMK A01 T02790111  RH  036%=      5-min Rain = 0
KPPS 220420Z 16011KT 28/11 A2987 RMK A01 T02760114  RH  038%=      5-min Rain = 0
KPPS 220425Z 16011G17KT 27/12 A2987 RMK A01 T02730120  RH  040%=      5-min Rain = 0
KPPS 220430Z 17011KT 27/13 A2986 RMK A01 T02700125  RH  042%=      5-min Rain = 0
KPPS 220435Z 17010KT 27/13 A2986 RMK A01 T02670128  RH  044%=      5-min Rain = 0
KPPS 220440Z 18009KT 27/13 A2986 RMK A01 T02650132  RH  045%=      5-min Rain = 0
KPPS 220445Z 17011KT 26/13 A2986 RMK A01 T02640133  RH  046%=      5-min Rain = 0
KPPS 220450Z 17012KT 27/13 A2986 RMK A01 T02660134  RH  046%=      5-min Rain = 0
KPPS 220455Z 17012KT 27/14 A2987 RMK A01 T02660135  RH  046%=      5-min Rain = 0

Page generated in 0.0098 seconds.